sensor_id;sensor_type;location;lat;lon;timestamp;P1;durP1;ratioP1;P2;durP2;ratioP2
3589;SDS011;1809;48.470;9.226;2023-03-20T00:01:26;4.40;;;3.00;;
3589;SDS011;1809;48.470;9.226;2023-03-20T00:03:57;2.13;;;2.03;;
3589;SDS011;1809;48.470;9.226;2023-03-20T00:06:26;3.13;;;2.90;;
3589;SDS011;1809;48.470;9.226;2023-03-20T00:08:56;2.63;;;2.43;;
3589;SDS011;1809;48.470;9.226;2023-03-20T00:14:16;2.50;;;2.30;;
3589;SDS011;1809;48.470;9.226;2023-03-20T00:16:45;4.00;;;2.00;;
3589;SDS011;1809;48.470;9.226;2023-03-20T00:19:15;1.93;;;1.83;;
3589;SDS011;1809;48.470;9.226;2023-03-20T00:21:42;3.27;;;1.43;;
3589;SDS011;1809;48.470;9.226;2023-03-20T00:24:10;1.57;;;1.47;;
3589;SDS011;1809;48.470;9.226;2023-03-20T00:26:36;2.50;;;1.57;;
3589;SDS011;1809;48.470;9.226;2023-03-20T00:29:02;1.90;;;1.33;;
3589;SDS011;1809;48.470;9.226;2023-03-20T00:31:30;1.50;;;1.40;;
3589;SDS011;1809;48.470;9.226;2023-03-20T00:33:58;1.63;;;1.03;;
3589;SDS011;1809;48.470;9.226;2023-03-20T00:36:25;0.97;;;0.97;;
3589;SDS011;1809;48.470;9.226;2023-03-20T00:38:51;0.97;;;0.97;;
3589;SDS011;1809;48.470;9.226;2023-03-20T00:43:54;4.17;;;1.53;;
3589;SDS011;1809;48.470;9.226;2023-03-20T00:46:23;1.17;;;1.17;;
3589;SDS011;1809;48.470;9.226;2023-03-20T00:48:49;1.43;;;1.33;;
3589;SDS011;1809;48.470;9.226;2023-03-20T00:51:16;0.90;;;0.90;;
3589;SDS011;1809;48.470;9.226;2023-03-20T00:53:41;2.60;;;1.10;;
3589;SDS011;1809;48.470;9.226;2023-03-20T00:56:10;1.70;;;1.20;;
3589;SDS011;1809;48.470;9.226;2023-03-20T00:58:53;2.40;;;1.00;;
3589;SDS011;1809;48.470;9.226;2023-03-20T01:01:19;1.30;;;1.23;;
3589;SDS011;1809;48.470;9.226;2023-03-20T01:03:44;0.77;;;0.77;;
3589;SDS011;1809;48.470;9.226;2023-03-20T01:06:10;0.70;;;0.70;;
3589;SDS011;1809;48.470;9.226;2023-03-20T01:08:36;0.93;;;0.87;;
3589;SDS011;1809;48.470;9.226;2023-03-20T01:11:02;0.80;;;0.80;;
3589;SDS011;1809;48.470;9.226;2023-03-20T01:13:28;2.70;;;0.87;;
3589;SDS011;1809;48.470;9.226;2023-03-20T01:15:55;0.80;;;0.80;;
3589;SDS011;1809;48.470;9.226;2023-03-20T01:18:25;0.80;;;0.80;;
3589;SDS011;1809;48.470;9.226;2023-03-20T01:20:51;0.70;;;0.70;;
3589;SDS011;1809;48.470;9.226;2023-03-20T01:23:17;0.90;;;0.90;;
3589;SDS011;1809;48.470;9.226;2023-03-20T01:25:43;0.70;;;0.70;;
3589;SDS011;1809;48.470;9.226;2023-03-20T01:28:19;1.13;;;1.13;;
3589;SDS011;1809;48.470;9.226;2023-03-20T01:30:47;1.33;;;0.77;;
3589;SDS011;1809;48.470;9.226;2023-03-20T01:33:16;0.90;;;0.90;;
3589;SDS011;1809;48.470;9.226;2023-03-20T01:35:44;0.87;;;0.87;;
3589;SDS011;1809;48.470;9.226;2023-03-20T01:38:20;1.03;;;0.93;;
3589;SDS011;1809;48.470;9.226;2023-03-20T01:43:29;1.37;;;1.27;;
3589;SDS011;1809;48.470;9.226;2023-03-20T01:51:13;1.03;;;1.03;;
3589;SDS011;1809;48.470;9.226;2023-03-20T01:53:39;1.30;;;1.30;;
3589;SDS011;1809;48.470;9.226;2023-03-20T01:56:05;1.70;;;1.60;;
3589;SDS011;1809;48.470;9.226;2023-03-20T01:58:32;2.40;;;2.30;;
3589;SDS011;1809;48.470;9.226;2023-03-20T02:01:01;2.60;;;2.47;;
3589;SDS011;1809;48.470;9.226;2023-03-20T02:03:28;1.93;;;1.83;;
3589;SDS011;1809;48.470;9.226;2023-03-20T02:05:54;3.90;;;2.10;;
3589;SDS011;1809;48.470;9.226;2023-03-20T02:10:52;4.73;;;2.20;;
3589;SDS011;1809;48.470;9.226;2023-03-20T02:13:19;2.63;;;1.70;;
3589;SDS011;1809;48.470;9.226;2023-03-20T02:15:56;1.90;;;1.80;;
3589;SDS011;1809;48.470;9.226;2023-03-20T02:18:32;2.57;;;2.37;;
3589;SDS011;1809;48.470;9.226;2023-03-20T02:23:54;1.80;;;1.70;;
3589;SDS011;1809;48.470;9.226;2023-03-20T02:43:03;2.17;;;2.07;;
3589;SDS011;1809;48.470;9.226;2023-03-20T02:51:48;2.27;;;2.13;;
3589;SDS011;1809;48.470;9.226;2023-03-20T02:57:16;2.40;;;1.77;;
3589;SDS011;1809;48.470;9.226;2023-03-20T02:59:57;2.13;;;2.03;;
3589;SDS011;1809;48.470;9.226;2023-03-20T03:02:36;2.93;;;1.83;;
3589;SDS011;1809;48.470;9.226;2023-03-20T03:05:17;2.10;;;2.00;;
3589;SDS011;1809;48.470;9.226;2023-03-20T03:07:54;9.30;;;1.70;;
3589;SDS011;1809;48.470;9.226;2023-03-20T03:10:24;1.80;;;1.70;;
3589;SDS011;1809;48.470;9.226;2023-03-20T03:12:57;1.90;;;1.30;;
3589;SDS011;1809;48.470;9.226;2023-03-20T03:15:26;1.63;;;1.20;;
3589;SDS011;1809;48.470;9.226;2023-03-20T03:17:56;7.60;;;1.70;;
3589;SDS011;1809;48.470;9.226;2023-03-20T03:20:25;3.10;;;1.27;;
3589;SDS011;1809;48.470;9.226;2023-03-20T03:22:55;3.00;;;1.00;;
3589;SDS011;1809;48.470;9.226;2023-03-20T03:25:22;1.03;;;1.03;;
3589;SDS011;1809;48.470;9.226;2023-03-20T03:28:37;1.30;;;1.20;;
3589;SDS011;1809;48.470;9.226;2023-03-20T03:30:47;1.40;;;1.30;;
3589;SDS011;1809;48.470;9.226;2023-03-20T03:33:25;1.50;;;1.40;;
3589;SDS011;1809;48.470;9.226;2023-03-20T03:35:57;1.00;;;1.00;;
3589;SDS011;1809;48.470;9.226;2023-03-20T03:41:26;4.33;;;1.20;;
3589;SDS011;1809;48.470;9.226;2023-03-20T03:44:13;1.33;;;1.33;;
3589;SDS011;1809;48.470;9.226;2023-03-20T03:46:42;1.53;;;1.30;;
3589;SDS011;1809;48.470;9.226;2023-03-20T03:49:14;1.93;;;1.47;;
3589;SDS011;1809;48.470;9.226;2023-03-20T03:51:46;2.07;;;1.30;;
3589;SDS011;1809;48.470;9.226;2023-03-20T03:54:24;2.60;;;1.63;;
3589;SDS011;1809;48.470;9.226;2023-03-20T03:57:04;1.97;;;1.87;;
3589;SDS011;1809;48.470;9.226;2023-03-20T03:59:35;1.57;;;1.10;;
3589;SDS011;1809;48.470;9.226;2023-03-20T04:02:07;1.03;;;1.00;;
3589;SDS011;1809;48.470;9.226;2023-03-20T04:04:34;2.73;;;1.20;;
3589;SDS011;1809;48.470;9.226;2023-03-20T04:07:12;2.40;;;1.20;;
3589;SDS011;1809;48.470;9.226;2023-03-20T04:09:39;1.20;;;1.20;;
3589;SDS011;1809;48.470;9.226;2023-03-20T04:12:05;1.03;;;1.03;;
3589;SDS011;1809;48.470;9.226;2023-03-20T04:14:31;1.20;;;1.20;;
3589;SDS011;1809;48.470;9.226;2023-03-20T04:16:57;1.23;;;1.23;;
3589;SDS011;1809;48.470;9.226;2023-03-20T04:19:25;1.07;;;1.07;;
3589;SDS011;1809;48.470;9.226;2023-03-20T04:21:51;4.07;;;1.50;;
3589;SDS011;1809;48.470;9.226;2023-03-20T04:24:16;2.50;;;1.53;;
3589;SDS011;1809;48.470;9.226;2023-03-20T04:26:44;8.70;;;1.97;;
3589;SDS011;1809;48.470;9.226;2023-03-20T04:29:10;1.83;;;1.53;;
3589;SDS011;1809;48.470;9.226;2023-03-20T04:31:39;1.33;;;1.33;;
3589;SDS011;1809;48.470;9.226;2023-03-20T04:34:10;3.37;;;0.90;;
3589;SDS011;1809;48.470;9.226;2023-03-20T04:36:36;1.40;;;1.40;;
3589;SDS011;1809;48.470;9.226;2023-03-20T04:39:04;2.70;;;1.20;;
3589;SDS011;1809;48.470;9.226;2023-03-20T04:41:33;1.73;;;1.47;;
3589;SDS011;1809;48.470;9.226;2023-03-20T04:43:58;3.40;;;1.00;;
3589;SDS011;1809;48.470;9.226;2023-03-20T04:46:24;1.50;;;1.40;;
3589;SDS011;1809;48.470;9.226;2023-03-20T04:48:50;1.17;;;1.00;;
3589;SDS011;1809;48.470;9.226;2023-03-20T04:51:16;0.90;;;0.90;;
3589;SDS011;1809;48.470;9.226;2023-03-20T04:53:41;1.40;;;1.30;;
3589;SDS011;1809;48.470;9.226;2023-03-20T04:56:07;1.10;;;1.00;;
3589;SDS011;1809;48.470;9.226;2023-03-20T04:58:32;1.20;;;1.20;;
3589;SDS011;1809;48.470;9.226;2023-03-20T05:01:00;1.30;;;1.20;;
3589;SDS011;1809;48.470;9.226;2023-03-20T05:03:25;2.50;;;1.10;;
3589;SDS011;1809;48.470;9.226;2023-03-20T05:05:51;4.30;;;1.20;;
3589;SDS011;1809;48.470;9.226;2023-03-20T05:08:17;1.00;;;0.90;;
3589;SDS011;1809;48.470;9.226;2023-03-20T05:10:43;1.40;;;1.20;;
3589;SDS011;1809;48.470;9.226;2023-03-20T05:13:08;1.00;;;0.90;;
3589;SDS011;1809;48.470;9.226;2023-03-20T05:15:34;1.10;;;1.00;;
3589;SDS011;1809;48.470;9.226;2023-03-20T05:18:00;1.33;;;0.90;;
3589;SDS011;1809;48.470;9.226;2023-03-20T05:20:26;1.43;;;1.00;;
3589;SDS011;1809;48.470;9.226;2023-03-20T05:22:51;1.20;;;1.10;;
3589;SDS011;1809;48.470;9.226;2023-03-20T05:25:17;1.63;;;1.30;;
3589;SDS011;1809;48.470;9.226;2023-03-20T05:27:43;2.20;;;1.10;;
3589;SDS011;1809;48.470;9.226;2023-03-20T05:30:10;1.10;;;1.10;;
3589;SDS011;1809;48.470;9.226;2023-03-20T05:32:36;0.80;;;0.80;;
3589;SDS011;1809;48.470;9.226;2023-03-20T05:35:02;0.90;;;0.90;;
3589;SDS011;1809;48.470;9.226;2023-03-20T05:37:28;3.33;;;1.37;;
3589;SDS011;1809;48.470;9.226;2023-03-20T05:39:54;11.07;;;1.57;;
3589;SDS011;1809;48.470;9.226;2023-03-20T05:42:19;1.97;;;1.40;;
3589;SDS011;1809;48.470;9.226;2023-03-20T05:44:45;1.47;;;1.20;;
3589;SDS011;1809;48.470;9.226;2023-03-20T05:47:10;3.13;;;1.07;;
3589;SDS011;1809;48.470;9.226;2023-03-20T05:49:35;1.03;;;1.03;;
3589;SDS011;1809;48.470;9.226;2023-03-20T05:52:01;2.47;;;1.73;;
3589;SDS011;1809;48.470;9.226;2023-03-20T05:54:26;4.40;;;1.50;;
3589;SDS011;1809;48.470;9.226;2023-03-20T05:56:52;1.57;;;1.10;;
3589;SDS011;1809;48.470;9.226;2023-03-20T05:59:17;2.43;;;1.20;;
3589;SDS011;1809;48.470;9.226;2023-03-20T06:01:42;2.47;;;1.20;;
3589;SDS011;1809;48.470;9.226;2023-03-20T06:04:08;0.80;;;0.80;;
3589;SDS011;1809;48.470;9.226;2023-03-20T06:06:33;0.90;;;0.90;;
3589;SDS011;1809;48.470;9.226;2023-03-20T06:09:02;1.07;;;1.07;;
3589;SDS011;1809;48.470;9.226;2023-03-20T06:11:32;1.00;;;1.00;;
3589;SDS011;1809;48.470;9.226;2023-03-20T06:14:00;1.40;;;1.30;;
3589;SDS011;1809;48.470;9.226;2023-03-20T06:16:26;4.77;;;1.47;;
3589;SDS011;1809;48.470;9.226;2023-03-20T06:18:52;1.20;;;1.20;;
3589;SDS011;1809;48.470;9.226;2023-03-20T06:21:18;4.80;;;0.90;;
3589;SDS011;1809;48.470;9.226;2023-03-20T06:23:44;1.00;;;1.00;;
3589;SDS011;1809;48.470;9.226;2023-03-20T06:26:09;1.03;;;0.80;;
3589;SDS011;1809;48.470;9.226;2023-03-20T06:28:35;0.87;;;0.87;;
3589;SDS011;1809;48.470;9.226;2023-03-20T06:31:01;0.80;;;0.80;;
3589;SDS011;1809;48.470;9.226;2023-03-20T06:33:27;0.70;;;0.70;;
3589;SDS011;1809;48.470;9.226;2023-03-20T06:35:53;0.83;;;0.83;;
3589;SDS011;1809;48.470;9.226;2023-03-20T06:38:18;0.80;;;0.80;;
3589;SDS011;1809;48.470;9.226;2023-03-20T06:40:44;0.90;;;0.90;;
3589;SDS011;1809;48.470;9.226;2023-03-20T06:43:10;1.40;;;1.33;;
3589;SDS011;1809;48.470;9.226;2023-03-20T06:45:39;1.00;;;1.00;;
3589;SDS011;1809;48.470;9.226;2023-03-20T06:48:08;3.60;;;0.90;;
3589;SDS011;1809;48.470;9.226;2023-03-20T06:50:35;2.80;;;1.30;;
3589;SDS011;1809;48.470;9.226;2023-03-20T06:53:03;1.23;;;1.13;;
3589;SDS011;1809;48.470;9.226;2023-03-20T06:55:29;1.60;;;1.50;;
3589;SDS011;1809;48.470;9.226;2023-03-20T06:57:58;7.60;;;1.50;;
3589;SDS011;1809;48.470;9.226;2023-03-20T07:00:25;4.93;;;1.60;;
3589;SDS011;1809;48.470;9.226;2023-03-20T07:02:51;1.97;;;1.33;;
3589;SDS011;1809;48.470;9.226;2023-03-20T07:05:18;7.97;;;2.27;;
3589;SDS011;1809;48.470;9.226;2023-03-20T07:07:44;4.07;;;1.83;;
3589;SDS011;1809;48.470;9.226;2023-03-20T07:10:10;3.43;;;1.47;;
3589;SDS011;1809;48.470;9.226;2023-03-20T07:12:36;0.83;;;0.83;;
3589;SDS011;1809;48.470;9.226;2023-03-20T07:15:02;1.27;;;1.17;;
3589;SDS011;1809;48.470;9.226;2023-03-20T07:17:28;1.87;;;1.77;;
3589;SDS011;1809;48.470;9.226;2023-03-20T07:19:54;1.60;;;1.50;;
3589;SDS011;1809;48.470;9.226;2023-03-20T07:22:26;1.90;;;0.90;;
3589;SDS011;1809;48.470;9.226;2023-03-20T07:24:52;1.20;;;1.10;;
3589;SDS011;1809;48.470;9.226;2023-03-20T07:27:19;2.03;;;0.90;;
3589;SDS011;1809;48.470;9.226;2023-03-20T07:29:47;1.00;;;0.87;;
3589;SDS011;1809;48.470;9.226;2023-03-20T07:32:13;0.90;;;0.73;;
3589;SDS011;1809;48.470;9.226;2023-03-20T07:34:39;1.23;;;0.73;;
3589;SDS011;1809;48.470;9.226;2023-03-20T07:37:05;1.50;;;1.23;;
3589;SDS011;1809;48.470;9.226;2023-03-20T07:39:31;1.97;;;0.70;;
3589;SDS011;1809;48.470;9.226;2023-03-20T07:41:57;0.70;;;0.70;;
3589;SDS011;1809;48.470;9.226;2023-03-20T07:44:22;1.07;;;1.03;;
3589;SDS011;1809;48.470;9.226;2023-03-20T07:46:48;1.80;;;1.70;;
3589;SDS011;1809;48.470;9.226;2023-03-20T07:49:17;1.10;;;1.00;;
3589;SDS011;1809;48.470;9.226;2023-03-20T07:51:46;1.13;;;0.70;;
3589;SDS011;1809;48.470;9.226;2023-03-20T07:54:13;1.43;;;0.80;;
3589;SDS011;1809;48.470;9.226;2023-03-20T07:56:39;0.90;;;0.90;;
3589;SDS011;1809;48.470;9.226;2023-03-20T07:59:05;0.80;;;0.80;;
3589;SDS011;1809;48.470;9.226;2023-03-20T08:01:33;1.33;;;0.90;;
3589;SDS011;1809;48.470;9.226;2023-03-20T08:03:59;0.87;;;0.87;;
3589;SDS011;1809;48.470;9.226;2023-03-20T08:06:25;0.70;;;0.70;;
3589;SDS011;1809;48.470;9.226;2023-03-20T08:08:50;0.77;;;0.70;;
3589;SDS011;1809;48.470;9.226;2023-03-20T08:11:19;1.43;;;1.03;;
3589;SDS011;1809;48.470;9.226;2023-03-20T08:13:48;1.33;;;1.00;;
3589;SDS011;1809;48.470;9.226;2023-03-20T08:16:13;0.97;;;0.87;;
3589;SDS011;1809;48.470;9.226;2023-03-20T08:18:39;2.93;;;0.70;;
3589;SDS011;1809;48.470;9.226;2023-03-20T08:21:06;0.77;;;0.70;;
3589;SDS011;1809;48.470;9.226;2023-03-20T08:23:32;1.10;;;1.10;;
3589;SDS011;1809;48.470;9.226;2023-03-20T08:26:01;1.30;;;1.30;;
3589;SDS011;1809;48.470;9.226;2023-03-20T08:28:31;0.93;;;0.93;;
3589;SDS011;1809;48.470;9.226;2023-03-20T08:30:56;2.30;;;0.73;;
3589;SDS011;1809;48.470;9.226;2023-03-20T08:33:22;0.90;;;0.90;;
3589;SDS011;1809;48.470;9.226;2023-03-20T08:35:54;0.80;;;0.80;;
3589;SDS011;1809;48.470;9.226;2023-03-20T08:38:21;1.00;;;1.00;;
3589;SDS011;1809;48.470;9.226;2023-03-20T08:40:46;1.30;;;1.30;;
3589;SDS011;1809;48.470;9.226;2023-03-20T08:43:12;1.23;;;0.90;;
3589;SDS011;1809;48.470;9.226;2023-03-20T08:45:41;0.80;;;0.80;;
3589;SDS011;1809;48.470;9.226;2023-03-20T08:48:07;0.90;;;0.90;;
3589;SDS011;1809;48.470;9.226;2023-03-20T08:50:36;3.63;;;1.53;;
3589;SDS011;1809;48.470;9.226;2023-03-20T08:53:02;1.10;;;0.83;;
3589;SDS011;1809;48.470;9.226;2023-03-20T08:55:29;1.07;;;1.00;;
3589;SDS011;1809;48.470;9.226;2023-03-20T08:57:54;1.37;;;0.73;;
3589;SDS011;1809;48.470;9.226;2023-03-20T09:00:21;0.70;;;0.70;;
3589;SDS011;1809;48.470;9.226;2023-03-20T09:02:48;0.87;;;0.80;;
3589;SDS011;1809;48.470;9.226;2023-03-20T09:05:19;0.60;;;0.60;;
3589;SDS011;1809;48.470;9.226;2023-03-20T09:07:48;1.10;;;0.73;;
3589;SDS011;1809;48.470;9.226;2023-03-20T09:10:15;0.70;;;0.70;;
3589;SDS011;1809;48.470;9.226;2023-03-20T09:12:41;0.83;;;0.83;;
3589;SDS011;1809;48.470;9.226;2023-03-20T09:15:07;0.90;;;0.90;;
3589;SDS011;1809;48.470;9.226;2023-03-20T09:17:33;2.00;;;0.90;;
3589;SDS011;1809;48.470;9.226;2023-03-20T09:19:59;2.30;;;1.00;;
3589;SDS011;1809;48.470;9.226;2023-03-20T09:22:25;2.13;;;1.93;;
3589;SDS011;1809;48.470;9.226;2023-03-20T09:24:50;1.20;;;1.20;;
3589;SDS011;1809;48.470;9.226;2023-03-20T09:27:17;1.47;;;0.90;;
3589;SDS011;1809;48.470;9.226;2023-03-20T09:29:45;0.80;;;0.80;;
3589;SDS011;1809;48.470;9.226;2023-03-20T09:32:14;1.17;;;1.17;;
3589;SDS011;1809;48.470;9.226;2023-03-20T09:34:45;0.70;;;0.70;;
3589;SDS011;1809;48.470;9.226;2023-03-20T09:37:11;1.03;;;0.73;;
3589;SDS011;1809;48.470;9.226;2023-03-20T09:39:37;0.60;;;0.60;;
3589;SDS011;1809;48.470;9.226;2023-03-20T09:42:15;0.90;;;0.80;;
3589;SDS011;1809;48.470;9.226;2023-03-20T09:48:04;1.23;;;0.80;;
3589;SDS011;1809;48.470;9.226;2023-03-20T09:53:27;0.80;;;0.80;;
3589;SDS011;1809;48.470;9.226;2023-03-20T09:56:00;0.70;;;0.70;;
3589;SDS011;1809;48.470;9.226;2023-03-20T09:58:37;1.77;;;0.90;;
3589;SDS011;1809;48.470;9.226;2023-03-20T10:01:05;0.80;;;0.80;;
3589;SDS011;1809;48.470;9.226;2023-03-20T10:06:36;0.70;;;0.70;;
3589;SDS011;1809;48.470;9.226;2023-03-20T10:09:16;0.83;;;0.60;;
3589;SDS011;1809;48.470;9.226;2023-03-20T10:14:20;0.70;;;0.70;;
3589;SDS011;1809;48.470;9.226;2023-03-20T10:17:11;0.60;;;0.60;;
3589;SDS011;1809;48.470;9.226;2023-03-20T10:22:21;0.70;;;0.70;;
3589;SDS011;1809;48.470;9.226;2023-03-20T10:24:53;1.73;;;0.80;;
3589;SDS011;1809;48.470;9.226;2023-03-20T10:30:25;0.70;;;0.70;;
3589;SDS011;1809;48.470;9.226;2023-03-20T10:41:34;0.80;;;0.60;;
3589;SDS011;1809;48.470;9.226;2023-03-20T10:44:03;0.80;;;0.80;;
3589;SDS011;1809;48.470;9.226;2023-03-20T10:46:41;2.43;;;0.70;;
3589;SDS011;1809;48.470;9.226;2023-03-20T10:49:16;1.07;;;0.70;;
3589;SDS011;1809;48.470;9.226;2023-03-20T10:51:51;0.87;;;0.60;;
3589;SDS011;1809;48.470;9.226;2023-03-20T10:54:22;0.80;;;0.80;;
3589;SDS011;1809;48.470;9.226;2023-03-20T10:56:51;0.70;;;0.70;;
3589;SDS011;1809;48.470;9.226;2023-03-20T11:02:19;1.10;;;0.80;;
3589;SDS011;1809;48.470;9.226;2023-03-20T11:04:47;2.10;;;1.00;;
3589;SDS011;1809;48.470;9.226;2023-03-20T11:12:30;0.70;;;0.70;;
3589;SDS011;1809;48.470;9.226;2023-03-20T11:14:58;2.33;;;1.27;;
3589;SDS011;1809;48.470;9.226;2023-03-20T11:17:27;1.37;;;1.27;;
3589;SDS011;1809;48.470;9.226;2023-03-20T11:19:53;1.10;;;1.10;;
3589;SDS011;1809;48.470;9.226;2023-03-20T11:22:35;2.97;;;1.10;;
3589;SDS011;1809;48.470;9.226;2023-03-20T11:25:02;0.90;;;0.90;;
3589;SDS011;1809;48.470;9.226;2023-03-20T11:27:30;1.10;;;1.10;;
3589;SDS011;1809;48.470;9.226;2023-03-20T11:29:57;1.00;;;0.90;;
3589;SDS011;1809;48.470;9.226;2023-03-20T11:32:27;1.03;;;0.93;;
3589;SDS011;1809;48.470;9.226;2023-03-20T11:37:49;1.90;;;1.40;;
3589;SDS011;1809;48.470;9.226;2023-03-20T11:40:24;1.43;;;1.20;;
3589;SDS011;1809;48.470;9.226;2023-03-20T11:45:25;0.93;;;0.93;;
3589;SDS011;1809;48.470;9.226;2023-03-20T11:47:54;0.93;;;0.93;;
3589;SDS011;1809;48.470;9.226;2023-03-20T11:52:59;1.40;;;1.30;;
3589;SDS011;1809;48.470;9.226;2023-03-20T11:55:27;1.97;;;1.50;;
3589;SDS011;1809;48.470;9.226;2023-03-20T11:58:13;1.10;;;1.00;;
3589;SDS011;1809;48.470;9.226;2023-03-20T12:00:41;0.80;;;0.80;;
3589;SDS011;1809;48.470;9.226;2023-03-20T12:06:24;1.10;;;1.03;;
3589;SDS011;1809;48.470;9.226;2023-03-20T12:08:55;0.80;;;0.80;;
3589;SDS011;1809;48.470;9.226;2023-03-20T12:12:33;0.80;;;0.80;;
3589;SDS011;1809;48.470;9.226;2023-03-20T12:14:31;2.50;;;1.00;;
3589;SDS011;1809;48.470;9.226;2023-03-20T12:17:05;0.90;;;0.80;;
3589;SDS011;1809;48.470;9.226;2023-03-20T12:19:52;1.00;;;0.97;;
3589;SDS011;1809;48.470;9.226;2023-03-20T12:22:33;1.83;;;1.23;;
3589;SDS011;1809;48.470;9.226;2023-03-20T12:25:12;0.80;;;0.80;;
3589;SDS011;1809;48.470;9.226;2023-03-20T12:28:35;0.93;;;0.93;;
3589;SDS011;1809;48.470;9.226;2023-03-20T12:36:40;0.80;;;0.80;;
3589;SDS011;1809;48.470;9.226;2023-03-20T12:42:06;1.20;;;1.10;;
3589;SDS011;1809;48.470;9.226;2023-03-20T12:50:34;1.17;;;1.17;;
3589;SDS011;1809;48.470;9.226;2023-03-20T13:01:16;1.00;;;1.00;;
3589;SDS011;1809;48.470;9.226;2023-03-20T13:11:56;1.27;;;1.17;;
3589;SDS011;1809;48.470;9.226;2023-03-20T13:14:33;2.70;;;1.10;;
3589;SDS011;1809;48.470;9.226;2023-03-20T13:17:14;1.50;;;0.87;;
3589;SDS011;1809;48.470;9.226;2023-03-20T13:19:47;2.03;;;1.83;;
3589;SDS011;1809;48.470;9.226;2023-03-20T13:22:18;1.27;;;1.17;;
3589;SDS011;1809;48.470;9.226;2023-03-20T13:25:00;1.13;;;1.10;;
3589;SDS011;1809;48.470;9.226;2023-03-20T13:27:39;2.40;;;2.20;;
3589;SDS011;1809;48.470;9.226;2023-03-20T13:30:18;1.20;;;1.20;;
3589;SDS011;1809;48.470;9.226;2023-03-20T13:38:25;1.00;;;0.80;;
3589;SDS011;1809;48.470;9.226;2023-03-20T13:40:58;0.97;;;0.97;;
3589;SDS011;1809;48.470;9.226;2023-03-20T13:48:49;1.03;;;0.93;;
3589;SDS011;1809;48.470;9.226;2023-03-20T13:54:09;1.50;;;1.30;;
3589;SDS011;1809;48.470;9.226;2023-03-20T14:05:11;0.80;;;0.80;;
3589;SDS011;1809;48.470;9.226;2023-03-20T14:07:42;1.10;;;1.10;;
3589;SDS011;1809;48.470;9.226;2023-03-20T14:10:41;1.67;;;1.23;;
3589;SDS011;1809;48.470;9.226;2023-03-20T14:13:05;4.07;;;3.00;;
3589;SDS011;1809;48.470;9.226;2023-03-20T14:15:37;1.10;;;1.10;;
3589;SDS011;1809;48.470;9.226;2023-03-20T14:18:12;4.00;;;3.13;;
3589;SDS011;1809;48.470;9.226;2023-03-20T14:20:41;1.50;;;1.40;;
3589;SDS011;1809;48.470;9.226;2023-03-20T14:23:17;2.87;;;2.03;;
3589;SDS011;1809;48.470;9.226;2023-03-20T14:25:50;4.17;;;3.50;;
3589;SDS011;1809;48.470;9.226;2023-03-20T14:30:45;1.87;;;1.77;;
3589;SDS011;1809;48.470;9.226;2023-03-20T14:38:17;0.90;;;0.90;;
3589;SDS011;1809;48.470;9.226;2023-03-20T14:43:59;1.00;;;0.97;;
3589;SDS011;1809;48.470;9.226;2023-03-20T14:46:39;1.80;;;0.90;;
3589;SDS011;1809;48.470;9.226;2023-03-20T14:49:18;2.13;;;1.27;;
3589;SDS011;1809;48.470;9.226;2023-03-20T14:51:50;0.77;;;0.77;;
3589;SDS011;1809;48.470;9.226;2023-03-20T14:54:28;1.10;;;0.90;;
3589;SDS011;1809;48.470;9.226;2023-03-20T14:56:55;0.70;;;0.70;;
3589;SDS011;1809;48.470;9.226;2023-03-20T14:59:33;2.40;;;2.20;;
3589;SDS011;1809;48.470;9.226;2023-03-20T15:02:00;4.43;;;2.90;;
3589;SDS011;1809;48.470;9.226;2023-03-20T15:04:27;3.60;;;2.00;;
3589;SDS011;1809;48.470;9.226;2023-03-20T15:06:57;2.70;;;1.93;;
3589;SDS011;1809;48.470;9.226;2023-03-20T15:09:26;1.50;;;1.40;;
3589;SDS011;1809;48.470;9.226;2023-03-20T15:11:53;2.97;;;2.23;;
3589;SDS011;1809;48.470;9.226;2023-03-20T15:14:28;1.20;;;1.20;;
3589;SDS011;1809;48.470;9.226;2023-03-20T15:17:15;1.47;;;1.37;;
3589;SDS011;1809;48.470;9.226;2023-03-20T15:19:42;2.03;;;1.50;;
3589;SDS011;1809;48.470;9.226;2023-03-20T15:22:18;1.67;;;1.33;;
3589;SDS011;1809;48.470;9.226;2023-03-20T15:24:51;2.57;;;1.13;;
3589;SDS011;1809;48.470;9.226;2023-03-20T15:27:17;2.00;;;1.20;;
3589;SDS011;1809;48.470;9.226;2023-03-20T15:29:54;1.70;;;1.60;;
3589;SDS011;1809;48.470;9.226;2023-03-20T15:32:21;2.37;;;1.60;;
3589;SDS011;1809;48.470;9.226;2023-03-20T15:34:47;1.50;;;1.40;;
3589;SDS011;1809;48.470;9.226;2023-03-20T15:37:15;4.40;;;3.60;;
3589;SDS011;1809;48.470;9.226;2023-03-20T15:39:46;3.10;;;2.90;;
3589;SDS011;1809;48.470;9.226;2023-03-20T15:42:17;2.73;;;2.23;;
3589;SDS011;1809;48.470;9.226;2023-03-20T15:44:45;4.70;;;2.03;;
3589;SDS011;1809;48.470;9.226;2023-03-20T15:47:15;9.33;;;5.30;;
3589;SDS011;1809;48.470;9.226;2023-03-20T15:49:48;2.27;;;2.00;;
3589;SDS011;1809;48.470;9.226;2023-03-20T15:52:23;1.50;;;1.20;;
3589;SDS011;1809;48.470;9.226;2023-03-20T15:54:50;1.43;;;1.10;;
3589;SDS011;1809;48.470;9.226;2023-03-20T15:57:18;2.10;;;1.80;;
3589;SDS011;1809;48.470;9.226;2023-03-20T15:59:49;8.23;;;3.40;;
3589;SDS011;1809;48.470;9.226;2023-03-20T16:02:15;2.80;;;1.67;;
3589;SDS011;1809;48.470;9.226;2023-03-20T16:04:50;1.70;;;1.37;;
3589;SDS011;1809;48.470;9.226;2023-03-20T16:07:22;1.40;;;1.30;;
3589;SDS011;1809;48.470;9.226;2023-03-20T16:09:51;1.10;;;0.93;;
3589;SDS011;1809;48.470;9.226;2023-03-20T16:12:17;2.60;;;1.87;;
3589;SDS011;1809;48.470;9.226;2023-03-20T16:14:44;3.33;;;1.30;;
3589;SDS011;1809;48.470;9.226;2023-03-20T16:17:11;1.23;;;1.10;;
3589;SDS011;1809;48.470;9.226;2023-03-20T16:19:37;1.60;;;1.50;;
3589;SDS011;1809;48.470;9.226;2023-03-20T16:22:36;1.20;;;1.10;;
3589;SDS011;1809;48.470;9.226;2023-03-20T16:24:59;1.93;;;1.83;;
3589;SDS011;1809;48.470;9.226;2023-03-20T16:27:27;1.73;;;1.20;;
3589;SDS011;1809;48.470;9.226;2023-03-20T16:29:54;1.23;;;1.13;;
3589;SDS011;1809;48.470;9.226;2023-03-20T16:32:30;1.03;;;0.93;;
3589;SDS011;1809;48.470;9.226;2023-03-20T16:35:01;1.17;;;1.10;;
3589;SDS011;1809;48.470;9.226;2023-03-20T16:37:54;3.10;;;2.80;;
3589;SDS011;1809;48.470;9.226;2023-03-20T16:40:31;12.37;;;7.17;;
3589;SDS011;1809;48.470;9.226;2023-03-20T16:43:09;3.10;;;2.37;;
3589;SDS011;1809;48.470;9.226;2023-03-20T16:45:40;1.40;;;1.30;;
3589;SDS011;1809;48.470;9.226;2023-03-20T16:50:37;5.00;;;1.43;;
3589;SDS011;1809;48.470;9.226;2023-03-20T16:53:09;8.70;;;5.17;;
3589;SDS011;1809;48.470;9.226;2023-03-20T16:55:47;2.53;;;1.70;;
3589;SDS011;1809;48.470;9.226;2023-03-20T16:58:19;3.40;;;2.90;;
3589;SDS011;1809;48.470;9.226;2023-03-20T17:00:49;1.80;;;1.70;;
3589;SDS011;1809;48.470;9.226;2023-03-20T17:03:24;1.30;;;1.20;;
3589;SDS011;1809;48.470;9.226;2023-03-20T17:06:05;1.40;;;1.30;;
3589;SDS011;1809;48.470;9.226;2023-03-20T17:08:36;1.37;;;1.27;;
3589;SDS011;1809;48.470;9.226;2023-03-20T17:11:12;1.53;;;1.43;;
3589;SDS011;1809;48.470;9.226;2023-03-20T17:13:46;1.50;;;1.40;;
3589;SDS011;1809;48.470;9.226;2023-03-20T17:16:13;1.47;;;1.37;;
3589;SDS011;1809;48.470;9.226;2023-03-20T17:18:43;1.80;;;1.70;;
3589;SDS011;1809;48.470;9.226;2023-03-20T17:21:10;1.10;;;1.00;;
3589;SDS011;1809;48.470;9.226;2023-03-20T17:23:35;1.33;;;1.23;;
3589;SDS011;1809;48.470;9.226;2023-03-20T17:26:01;2.57;;;2.37;;
3589;SDS011;1809;48.470;9.226;2023-03-20T17:28:27;8.50;;;2.43;;
3589;SDS011;1809;48.470;9.226;2023-03-20T17:30:57;3.60;;;3.30;;
3589;SDS011;1809;48.470;9.226;2023-03-20T17:33:25;2.30;;;2.00;;
3589;SDS011;1809;48.470;9.226;2023-03-20T17:35:52;1.63;;;1.53;;
3589;SDS011;1809;48.470;9.226;2023-03-20T17:38:21;3.23;;;2.83;;
3589;SDS011;1809;48.470;9.226;2023-03-20T17:40:47;1.93;;;1.83;;
3589;SDS011;1809;48.470;9.226;2023-03-20T17:43:14;2.40;;;1.97;;
3589;SDS011;1809;48.470;9.226;2023-03-20T17:45:42;2.83;;;2.43;;
3589;SDS011;1809;48.470;9.226;2023-03-20T17:48:12;4.17;;;2.90;;
3589;SDS011;1809;48.470;9.226;2023-03-20T17:50:43;3.53;;;3.27;;
3589;SDS011;1809;48.470;9.226;2023-03-20T17:53:13;9.37;;;6.50;;
3589;SDS011;1809;48.470;9.226;2023-03-20T17:55:41;8.43;;;5.43;;
3589;SDS011;1809;48.470;9.226;2023-03-20T17:58:07;2.90;;;2.70;;
3589;SDS011;1809;48.470;9.226;2023-03-20T18:00:38;3.97;;;3.43;;
3589;SDS011;1809;48.470;9.226;2023-03-20T18:03:03;4.10;;;3.40;;
3589;SDS011;1809;48.470;9.226;2023-03-20T18:05:28;5.47;;;3.23;;
3589;SDS011;1809;48.470;9.226;2023-03-20T18:07:56;7.73;;;4.60;;
3589;SDS011;1809;48.470;9.226;2023-03-20T18:10:25;7.20;;;6.00;;